Time;durP1;ratioP1;P1;durP2;ratioP2;P2;SDS_P1;SDS_P2;PMS_P1;PMS_P2;Temp;Humidity;BMP_temperature;BMP_pressure;BME280_temperature;BME280_humidity;BME280_pressure;Samples;Min_cycle;Max_cycle;Signal;HPM_P1;HPM_P2
2021/12/18 00:01:52;;;;;;;3.80;2.57;;;;;;;;;;5009053;28;20237;-75
2021/12/18 00:04:20;;;;;;;4.63;2.83;;;;;;;;;;4994688;28;20302;-75
2021/12/18 00:06:48;;;;;;;3.27;2.63;;;;;;;;;;5013141;28;20705;-75
2021/12/18 00:09:18;;;;;;;4.50;3.00;;;;;;;;;;5012769;28;20600;-75
2021/12/18 00:11:51;;;;;;;4.20;2.77;;;;;;;;;;4977847;28;20213;-75
2021/12/18 00:14:18;;;;;;;4.17;2.80;;;;;;;;;;4992950;28;20256;-75
2021/12/18 00:16:46;;;;;;;4.23;2.67;;;;;;;;;;5030530;28;20223;-75
2021/12/18 00:19:12;;;;;;;4.40;2.57;;;;;;;;;;5032712;28;20227;-75
2021/12/18 00:21:40;;;;;;;4.43;2.60;;;;;;;;;;5000508;28;20232;-75
2021/12/18 00:24:06;;;;;;;3.43;2.10;;;;;;;;;;5033199;28;20228;-75
2021/12/18 00:26:32;;;;;;;4.23;1.97;;;;;;;;;;5033304;28;20219;-76
2021/12/18 00:29:03;;;;;;;3.97;2.33;;;;;;;;;;5031110;28;20710;-76
2021/12/18 00:31:33;;;;;;;3.17;2.13;;;;;;;;;;4995064;28;20716;-75
2021/12/18 00:34:01;;;;;;;3.93;2.30;;;;;;;;;;5001450;28;20232;-75
2021/12/18 00:36:27;;;;;;;2.60;1.70;;;;;;;;;;5010337;28;20920;-76
2021/12/18 00:38:52;;;;;;;4.63;1.90;;;;;;;;;;5016076;28;20212;-76
2021/12/18 00:44:13;;;;;;;2.67;1.70;;;;;;;;;;5009557;28;20724;-76
2021/12/18 00:46:41;;;;;;;2.37;1.50;;;;;;;;;;5012986;28;20232;-75
2021/12/18 00:49:14;;;;;;;2.70;1.40;;;;;;;;;;5000280;28;20767;-76
2021/12/18 00:51:45;;;;;;;3.47;1.70;;;;;;;;;;5016661;28;20650;-75
2021/12/18 00:54:12;;;;;;;2.80;1.60;;;;;;;;;;5031619;28;20339;-75
2021/12/18 00:56:40;;;;;;;2.63;1.40;;;;;;;;;;5018888;28;20221;-76
2021/12/18 00:59:06;;;;;;;2.83;1.70;;;;;;;;;;4996466;28;20220;-76
2021/12/18 01:01:32;;;;;;;3.27;1.67;;;;;;;;;;4996557;28;20716;-75
2021/12/18 01:04:00;;;;;;;3.73;1.80;;;;;;;;;;4997509;28;20229;-75
2021/12/18 01:06:28;;;;;;;4.30;1.93;;;;;;;;;;5007656;28;20240;-75
2021/12/18 01:08:57;;;;;;;2.43;1.70;;;;;;;;;;5015930;28;20325;-75
2021/12/18 01:11:42;;;;;;;3.60;1.90;;;;;;;;;;5006769;28;20239;-75
2021/12/18 01:14:29;;;;;;;3.70;1.70;;;;;;;;;;5004717;28;20231;-76
2021/12/18 01:22:42;;;;;;;2.80;1.40;;;;;;;;;;5019598;28;20260;-75
2021/12/18 01:25:11;;;;;;;3.20;1.77;;;;;;;;;;5029880;28;20234;-75
2021/12/18 01:27:36;;;;;;;2.20;1.27;;;;;;;;;;4998537;28;20220;-75
2021/12/18 01:30:06;;;;;;;2.83;1.40;;;;;;;;;;5014745;28;20262;-76
2021/12/18 01:32:32;;;;;;;1.93;1.23;;;;;;;;;;5032045;28;20302;-75
2021/12/18 01:34:57;;;;;;;3.20;1.50;;;;;;;;;;5014791;28;20711;-75
2021/12/18 01:37:28;;;;;;;3.77;1.77;;;;;;;;;;5001066;28;20300;-75
2021/12/18 01:39:58;;;;;;;2.87;1.60;;;;;;;;;;4996414;28;20301;-75
2021/12/18 01:53:00;;;;;;;3.93;1.83;;;;;;;;;;4994547;28;20311;-75
2021/12/18 01:55:31;;;;;;;4.50;1.93;;;;;;;;;;5010744;28;20295;-75
2021/12/18 01:57:56;;;;;;;5.90;2.23;;;;;;;;;;5015967;28;20668;-75
2021/12/18 02:00:43;;;;;;;5.17;2.40;;;;;;;;;;5013109;28;20327;-75
2021/12/18 02:03:11;;;;;;;5.87;2.00;;;;;;;;;;5027619;28;20732;-75
2021/12/18 02:05:42;;;;;;;5.67;2.40;;;;;;;;;;5014723;28;20242;-76
2021/12/18 02:08:09;;;;;;;4.90;2.30;;;;;;;;;;5014696;28;20225;-75
2021/12/18 02:10:48;;;;;;;3.40;2.20;;;;;;;;;;4988406;28;20274;-75
2021/12/18 02:21:18;;;;;;;4.33;2.03;;;;;;;;;;5030855;28;20294;-75
2021/12/18 02:23:48;;;;;;;4.30;2.03;;;;;;;;;;5012757;28;20256;-74
2021/12/18 02:26:14;;;;;;;4.10;1.90;;;;;;;;;;4978361;28;20315;-75
2021/12/18 02:28:47;;;;;;;2.50;1.47;;;;;;;;;;5011940;28;20307;-75
2021/12/18 02:31:13;;;;;;;3.33;1.67;;;;;;;;;;4998715;28;20765;-74
2021/12/18 02:33:41;;;;;;;3.23;1.63;;;;;;;;;;5013022;28;20311;-75
2021/12/18 02:36:12;;;;;;;3.17;1.70;;;;;;;;;;5013495;28;20311;-74
2021/12/18 02:41:29;;;;;;;2.40;1.70;;;;;;;;;;5015467;28;20240;-75
2021/12/18 02:43:58;;;;;;;2.43;1.80;;;;;;;;;;4998157;28;20614;-75
2021/12/18 02:46:27;;;;;;;3.00;1.80;;;;;;;;;;5029724;28;20235;-74
2021/12/18 02:48:55;;;;;;;3.70;1.90;;;;;;;;;;5010380;28;20312;-75
2021/12/18 02:51:23;;;;;;;2.70;1.67;;;;;;;;;;4993403;28;20221;-75
2021/12/18 02:53:51;;;;;;;2.73;1.50;;;;;;;;;;4989616;28;20311;-74
2021/12/18 02:56:18;;;;;;;2.33;1.53;;;;;;;;;;5009990;28;20231;-74
2021/12/18 02:58:46;;;;;;;3.57;1.80;;;;;;;;;;4983649;28;20231;-74
2021/12/18 03:01:21;;;;;;;3.37;1.90;;;;;;;;;;4993639;28;20367;-75
2021/12/18 03:03:47;;;;;;;3.13;1.87;;;;;;;;;;5029912;28;20219;-75
2021/12/18 03:06:38;;;;;;;3.10;1.60;;;;;;;;;;5013747;28;20231;-74
2021/12/18 03:25:25;;;;;;;1.70;1.50;;;;;;;;;;5009551;28;20232;-74
2021/12/18 03:27:52;;;;;;;2.37;1.60;;;;;;;;;;5001712;28;20303;-75
2021/12/18 03:30:17;;;;;;;1.97;1.67;;;;;;;;;;5012702;28;20220;-75
2021/12/18 03:32:43;;;;;;;1.97;1.40;;;;;;;;;;5028495;28;20219;-74
2021/12/18 03:35:09;;;;;;;3.20;1.63;;;;;;;;;;4988418;28;20237;-75
2021/12/18 03:37:35;;;;;;;1.60;1.40;;;;;;;;;;4993766;28;20307;-75
2021/12/18 03:40:09;;;;;;;2.13;1.40;;;;;;;;;;4993521;28;20217;-75
2021/12/18 03:42:40;;;;;;;2.37;1.43;;;;;;;;;;5012182;28;20312;-74
2021/12/18 03:45:06;;;;;;;2.53;1.40;;;;;;;;;;5008642;28;20607;-75
2021/12/18 03:47:31;;;;;;;2.80;1.40;;;;;;;;;;4977397;28;20221;-75
2021/12/18 03:49:57;;;;;;;2.20;1.00;;;;;;;;;;5025810;28;20235;-74
2021/12/18 03:52:27;;;;;;;1.93;1.53;;;;;;;;;;5004657;28;20216;-74
2021/12/18 03:54:53;;;;;;;3.03;1.63;;;;;;;;;;5030811;28;20286;-75
2021/12/18 03:57:21;;;;;;;2.60;1.43;;;;;;;;;;5016747;28;20219;-74
2021/12/18 03:59:47;;;;;;;3.33;1.63;;;;;;;;;;4997520;28;20347;-74
2021/12/18 04:02:19;;;;;;;3.43;1.60;;;;;;;;;;5012949;28;20303;-74
2021/12/18 04:04:47;;;;;;;3.53;1.80;;;;;;;;;;5028315;28;20250;-74
2021/12/18 04:07:15;;;;;;;3.47;1.63;;;;;;;;;;5033116;28;20224;-74
2021/12/18 04:09:41;;;;;;;4.87;2.03;;;;;;;;;;5013475;28;20287;-75
2021/12/18 04:12:07;;;;;;;5.33;2.67;;;;;;;;;;4996495;28;20225;-75
2021/12/18 04:14:35;;;;;;;6.87;2.93;;;;;;;;;;5032369;28;20230;-75
2021/12/18 04:17:03;;;;;;;6.23;3.07;;;;;;;;;;5033129;28;20223;-75
2021/12/18 04:19:31;;;;;;;7.03;3.10;;;;;;;;;;5012686;28;20271;-75
2021/12/18 04:21:59;;;;;;;8.90;3.47;;;;;;;;;;4996523;28;20236;-75
2021/12/18 04:24:26;;;;;;;8.40;3.40;;;;;;;;;;4986211;28;20231;-74
2021/12/18 04:26:52;;;;;;;8.47;4.50;;;;;;;;;;5032959;28;20582;-75
2021/12/18 04:29:22;;;;;;;8.67;4.37;;;;;;;;;;5009612;28;20307;-75
2021/12/18 04:31:47;;;;;;;10.90;4.57;;;;;;;;;;4981025;28;20619;-75
2021/12/18 04:34:17;;;;;;;11.63;4.90;;;;;;;;;;5001647;28;20222;-76
2021/12/18 04:36:43;;;;;;;11.73;4.90;;;;;;;;;;4984421;28;20572;-75
2021/12/18 04:39:10;;;;;;;13.03;5.30;;;;;;;;;;4995554;28;20221;-76
2021/12/18 04:41:39;;;;;;;13.10;5.40;;;;;;;;;;4980243;28;20221;-76
2021/12/18 04:44:08;;;;;;;13.60;5.80;;;;;;;;;;4983796;28;20224;-75
2021/12/18 04:46:33;;;;;;;15.93;5.80;;;;;;;;;;5015927;28;20235;-74
2021/12/18 04:48:59;;;;;;;13.73;5.43;;;;;;;;;;5004436;28;20235;-74
2021/12/18 04:51:25;;;;;;;12.57;5.33;;;;;;;;;;4999347;28;20220;-74
2021/12/18 04:53:50;;;;;;;14.87;5.57;;;;;;;;;;5033620;28;20223;-74
2021/12/18 04:56:18;;;;;;;14.43;5.37;;;;;;;;;;5031894;28;20248;-73
2021/12/18 04:58:44;;;;;;;13.53;5.17;;;;;;;;;;4999464;28;20227;-73
2021/12/18 05:01:15;;;;;;;13.30;5.60;;;;;;;;;;4997637;28;20311;-75
2021/12/18 05:03:41;;;;;;;17.00;6.10;;;;;;;;;;4978638;28;20279;-74
2021/12/18 05:06:09;;;;;;;13.47;5.57;;;;;;;;;;5027596;28;20224;-75
2021/12/18 05:08:37;;;;;;;14.83;5.50;;;;;;;;;;4999258;28;20299;-75
2021/12/18 05:11:03;;;;;;;15.43;5.90;;;;;;;;;;5000785;28;20239;-74
2021/12/18 05:13:30;;;;;;;16.37;5.73;;;;;;;;;;4980454;28;20224;-74
2021/12/18 05:15:58;;;;;;;18.47;5.57;;;;;;;;;;5018567;28;20219;-77
2021/12/18 05:18:28;;;;;;;18.03;5.57;;;;;;;;;;4996051;28;20256;-75
2021/12/18 05:20:56;;;;;;;13.77;5.50;;;;;;;;;;4990023;28;20252;-76
2021/12/18 05:23:22;;;;;;;13.47;5.07;;;;;;;;;;5013787;28;20315;-76
2021/12/18 05:25:49;;;;;;;12.00;4.43;;;;;;;;;;5007524;28;20216;-75
2021/12/18 05:28:19;;;;;;;12.57;5.17;;;;;;;;;;5006835;28;20224;-76
2021/12/18 05:30:47;;;;;;;14.43;4.50;;;;;;;;;;5005676;28;20216;-76
2021/12/18 05:33:13;;;;;;;12.47;5.00;;;;;;;;;;5030166;28;20315;-76
2021/12/18 05:35:39;;;;;;;11.00;4.40;;;;;;;;;;4987509;28;20220;-76
2021/12/18 05:38:05;;;;;;;13.23;4.93;;;;;;;;;;5015212;28;20228;-76
2021/12/18 05:40:31;;;;;;;14.47;5.30;;;;;;;;;;5024839;28;20236;-75
2021/12/18 05:42:58;;;;;;;13.07;4.90;;;;;;;;;;5011492;28;20698;-75
2021/12/18 05:45:24;;;;;;;14.20;4.90;;;;;;;;;;5000306;28;20303;-76
2021/12/18 05:47:52;;;;;;;13.37;4.70;;;;;;;;;;4994971;28;20209;-76
2021/12/18 05:50:20;;;;;;;12.40;5.57;;;;;;;;;;5010913;28;20212;-76
2021/12/18 05:52:49;;;;;;;12.97;5.20;;;;;;;;;;5011367;28;20320;-76
2021/12/18 05:55:20;;;;;;;11.33;5.27;;;;;;;;;;4997806;28;20235;-76
2021/12/18 05:57:48;;;;;;;13.70;5.60;;;;;;;;;;5015823;28;20224;-75
2021/12/18 06:00:17;;;;;;;13.27;5.13;;;;;;;;;;5030451;28;20239;-75
2021/12/18 06:02:45;;;;;;;10.17;4.63;;;;;;;;;;5027625;28;20271;-75
2021/12/18 06:05:10;;;;;;;11.80;5.53;;;;;;;;;;5008535;28;20232;-76
2021/12/18 06:08:12;;;;;;;11.23;5.43;;;;;;;;;;5011402;28;20694;-75
2021/12/18 06:10:34;;;;;;;13.00;5.70;;;;;;;;;;5010331;28;20240;-75
2021/12/18 06:13:02;;;;;;;12.17;4.97;;;;;;;;;;4998610;28;20239;-75
2021/12/18 06:15:30;;;;;;;13.03;5.33;;;;;;;;;;4982494;28;20216;-75
2021/12/18 06:17:56;;;;;;;12.33;5.30;;;;;;;;;;5014711;28;20227;-75
2021/12/18 06:20:22;;;;;;;12.97;5.43;;;;;;;;;;5030443;28;20231;-75
2021/12/18 06:22:47;;;;;;;11.87;5.70;;;;;;;;;;4994221;28;20221;-75
2021/12/18 06:25:13;;;;;;;10.27;5.17;;;;;;;;;;4994031;28;20235;-76
2021/12/18 06:27:43;;;;;;;14.20;6.40;;;;;;;;;;4996487;28;20303;-75
2021/12/18 06:30:12;;;;;;;9.87;4.97;;;;;;;;;;5012790;28;20217;-74
2021/12/18 06:32:40;;;;;;;11.13;5.33;;;;;;;;;;4994954;28;20215;-75
2021/12/18 06:35:07;;;;;;;10.60;5.10;;;;;;;;;;5014040;28;20225;-75
2021/12/18 06:37:37;;;;;;;10.57;5.00;;;;;;;;;;4994876;28;20212;-76
2021/12/18 06:40:05;;;;;;;9.43;4.97;;;;;;;;;;4977752;28;20311;-75
2021/12/18 06:42:33;;;;;;;8.77;5.07;;;;;;;;;;4994371;28;20220;-75
2021/12/18 06:45:01;;;;;;;8.87;4.70;;;;;;;;;;5027109;28;20231;-75
2021/12/18 06:47:27;;;;;;;8.47;4.70;;;;;;;;;;4993807;28;20312;-74
2021/12/18 06:49:57;;;;;;;8.47;4.63;;;;;;;;;;4993577;28;20209;-76
2021/12/18 06:52:25;;;;;;;9.00;4.50;;;;;;;;;;4989522;28;20260;-76
2021/12/18 06:54:50;;;;;;;9.30;4.43;;;;;;;;;;4997418;28;20281;-75
2021/12/18 06:57:22;;;;;;;8.43;4.50;;;;;;;;;;5010261;28;20736;-75
2021/12/18 06:59:50;;;;;;;10.07;4.40;;;;;;;;;;4978778;28;20213;-75
2021/12/18 07:02:18;;;;;;;7.97;4.30;;;;;;;;;;4976886;28;20325;-75
2021/12/18 07:04:43;;;;;;;7.70;3.80;;;;;;;;;;4997333;28;20235;-75
2021/12/18 07:07:11;;;;;;;7.13;3.97;;;;;;;;;;5016957;28;20224;-75
2021/12/18 07:09:41;;;;;;;8.93;4.13;;;;;;;;;;4994068;28;20308;-76
2021/12/18 07:12:09;;;;;;;7.00;3.63;;;;;;;;;;4997750;28;20227;-75
2021/12/18 07:14:34;;;;;;;6.97;4.00;;;;;;;;;;4997395;28;20234;-76
2021/12/18 07:17:02;;;;;;;8.93;4.00;;;;;;;;;;5013675;28;20220;-73
2021/12/18 07:19:30;;;;;;;5.40;3.30;;;;;;;;;;5012383;28;20212;-76
2021/12/18 07:21:56;;;;;;;6.80;4.00;;;;;;;;;;5027171;28;20645;-76
2021/12/18 07:24:34;;;;;;;6.60;3.20;;;;;;;;;;5011969;28;20894;-74
2021/12/18 07:27:00;;;;;;;5.90;3.33;;;;;;;;;;5008639;28;20733;-76
2021/12/18 07:29:25;;;;;;;5.97;3.20;;;;;;;;;;5016399;28;20266;-73
2021/12/18 07:31:51;;;;;;;5.87;3.23;;;;;;;;;;5010293;28;20247;-72
2021/12/18 07:34:16;;;;;;;5.50;3.10;;;;;;;;;;5027964;28;20246;-74
2021/12/18 07:36:47;;;;;;;5.33;2.90;;;;;;;;;;4989345;28;20814;-74
2021/12/18 07:39:12;;;;;;;4.43;2.70;;;;;;;;;;5005079;28;20612;-74
2021/12/18 07:41:42;;;;;;;4.93;2.83;;;;;;;;;;5012202;28;20227;-74
2021/12/18 07:44:12;;;;;;;5.50;2.90;;;;;;;;;;5012816;28;20235;-74
2021/12/18 07:46:40;;;;;;;5.77;3.10;;;;;;;;;;5026170;28;20698;-74
2021/12/18 07:49:06;;;;;;;5.03;2.80;;;;;;;;;;4977670;28;20224;-74
2021/12/18 07:51:37;;;;;;;4.03;2.90;;;;;;;;;;4993860;28;20307;-74
2021/12/18 07:54:06;;;;;;;4.63;3.03;;;;;;;;;;5026802;28;20239;-75
2021/12/18 07:56:32;;;;;;;3.70;2.27;;;;;;;;;;5013676;28;20227;-75
2021/12/18 07:58:59;;;;;;;3.43;2.37;;;;;;;;;;5013268;28;20589;-75
2021/12/18 08:01:25;;;;;;;3.63;2.43;;;;;;;;;;4993168;28;20229;-75
2021/12/18 08:03:53;;;;;;;2.93;2.17;;;;;;;;;;4995480;28;20219;-75
2021/12/18 08:06:23;;;;;;;5.10;2.47;;;;;;;;;;5023538;28;20415;-75
2021/12/18 08:08:50;;;;;;;6.33;2.80;;;;;;;;;;5005420;28;20224;-75
2021/12/18 08:11:15;;;;;;;4.50;2.50;;;;;;;;;;4993115;28;20235;-75
2021/12/18 08:13:43;;;;;;;4.03;2.40;;;;;;;;;;5021803;28;20224;-76
2021/12/18 08:16:13;;;;;;;5.33;2.53;;;;;;;;;;4996748;28;20228;-75
2021/12/18 08:18:39;;;;;;;5.20;2.40;;;;;;;;;;4985276;28;20231;-75
2021/12/18 08:21:04;;;;;;;4.53;2.40;;;;;;;;;;4976568;28;20717;-75
2021/12/18 08:23:30;;;;;;;4.80;2.60;;;;;;;;;;4975823;28;20217;-75
2021/12/18 08:26:00;;;;;;;3.70;2.77;;;;;;;;;;4993580;28;20221;-75
2021/12/18 08:28:28;;;;;;;4.63;2.73;;;;;;;;;;4998357;28;20213;-76
2021/12/18 08:30:54;;;;;;;5.13;2.90;;;;;;;;;;5009131;28;20283;-75
2021/12/18 08:33:19;;;;;;;2.90;2.33;;;;;;;;;;4998459;28;20322;-75
2021/12/18 08:35:47;;;;;;;3.53;2.60;;;;;;;;;;5012854;28;20228;-74
2021/12/18 08:38:13;;;;;;;3.23;2.07;;;;;;;;;;5009481;28;20221;-75
2021/12/18 08:40:38;;;;;;;6.00;2.63;;;;;;;;;;4999186;28;20263;-75
2021/12/18 08:43:06;;;;;;;5.00;2.53;;;;;;;;;;5006411;28;20232;-75
2021/12/18 08:45:32;;;;;;;5.73;2.70;;;;;;;;;;5007794;28;20447;-76
2021/12/18 08:48:03;;;;;;;6.80;2.67;;;;;;;;;;5016631;28;20598;-75
2021/12/18 08:50:29;;;;;;;3.60;2.53;;;;;;;;;;5011262;28;20226;-76
2021/12/18 08:52:54;;;;;;;5.33;2.27;;;;;;;;;;5048950;28;20705;-76
2021/12/18 08:55:23;;;;;;;4.10;2.20;;;;;;;;;;4978490;28;20229;-76
2021/12/18 08:57:49;;;;;;;4.97;2.50;;;;;;;;;;5006257;28;20236;-76
2021/12/18 09:00:19;;;;;;;4.63;2.63;;;;;;;;;;5002527;28;20241;-75
2021/12/18 09:02:48;;;;;;;4.53;2.40;;;;;;;;;;4999537;28;20576;-75
2021/12/18 09:05:14;;;;;;;5.43;2.83;;;;;;;;;;5008014;28;20232;-75
2021/12/18 09:07:42;;;;;;;5.67;2.40;;;;;;;;;;5016789;28;20311;-75
2021/12/18 09:10:14;;;;;;;4.77;2.50;;;;;;;;;;5010058;28;20719;-76
2021/12/18 09:12:42;;;;;;;4.83;2.30;;;;;;;;;;5015565;28;20235;-75
2021/12/18 09:15:08;;;;;;;4.03;2.53;;;;;;;;;;4989672;28;20228;-76
2021/12/18 09:17:36;;;;;;;3.03;2.03;;;;;;;;;;4993535;28;20221;-75
2021/12/18 09:20:01;;;;;;;4.60;2.40;;;;;;;;;;5026187;28;20701;-74
2021/12/18 09:22:29;;;;;;;6.53;2.50;;;;;;;;;;5027242;28;20220;-75
2021/12/18 09:24:55;;;;;;;4.97;2.60;;;;;;;;;;4991556;28;20307;-75
2021/12/18 09:27:25;;;;;;;3.67;2.37;;;;;;;;;;5032271;28;20216;-76
2021/12/18 09:29:56;;;;;;;4.07;2.37;;;;;;;;;;5003468;28;20284;-75
2021/12/18 09:32:24;;;;;;;5.03;2.77;;;;;;;;;;5011377;28;20682;-76
2021/12/18 09:34:52;;;;;;;3.67;2.10;;;;;;;;;;5001649;28;20241;-76
2021/12/18 09:37:17;;;;;;;3.87;2.30;;;;;;;;;;4987282;28;20229;-76
2021/12/18 09:39:43;;;;;;;4.93;2.30;;;;;;;;;;4990569;28;20611;-76
2021/12/18 09:42:11;;;;;;;5.47;2.10;;;;;;;;;;5005623;28;20232;-76
2021/12/18 09:44:41;;;;;;;2.20;1.87;;;;;;;;;;5031697;28;20228;-76
2021/12/18 09:47:11;;;;;;;3.50;2.03;;;;;;;;;;5015309;28;20250;-76
2021/12/18 09:49:36;;;;;;;3.40;2.00;;;;;;;;;;5031740;28;20567;-76
2021/12/18 09:52:04;;;;;;;3.83;2.20;;;;;;;;;;5015913;28;20342;-76
2021/12/18 09:54:32;;;;;;;4.47;1.97;;;;;;;;;;5012816;28;20221;-75
2021/12/18 09:57:00;;;;;;;3.93;1.93;;;;;;;;;;4997163;28;20591;-75
2021/12/18 09:59:26;;;;;;;3.23;2.13;;;;;;;;;;5007190;28;20220;-76
2021/12/18 10:01:54;;;;;;;3.33;2.00;;;;;;;;;;4995413;28;20233;-75
2021/12/18 10:04:39;;;;;;;3.77;1.80;;;;;;;;;;4965617;28;20282;-74
2021/12/18 10:07:22;;;;;;;3.13;1.90;;;;;;;;;;5014351;28;20555;-75
2021/12/18 10:09:51;;;;;;;3.17;2.17;;;;;;;;;;5022514;28;20217;-74
2021/12/18 10:12:20;;;;;;;3.57;2.30;;;;;;;;;;4979804;28;20281;-75
2021/12/18 10:14:48;;;;;;;3.63;2.10;;;;;;;;;;5023388;28;20228;-74
2021/12/18 10:17:35;;;;;;;2.93;1.80;;;;;;;;;;4997021;28;20259;-74
2021/12/18 10:20:10;;;;;;;4.10;1.90;;;;;;;;;;4994366;28;20600;-73
2021/12/18 10:22:59;;;;;;;2.93;1.80;;;;;;;;;;5017520;28;20247;-72
2021/12/18 10:25:40;;;;;;;2.80;1.97;;;;;;;;;;5022223;28;20595;-72
2021/12/18 10:28:14;;;;;;;2.77;1.60;;;;;;;;;;4982375;28;20223;-73
2021/12/18 10:30:50;;;;;;;2.67;1.80;;;;;;;;;;5143001;22;20294;-75
2021/12/18 10:33:24;;;;;;;3.73;2.10;;;;;;;;;;5033657;28;20764;-74
2021/12/18 10:35:53;;;;;;;1.70;1.40;;;;;;;;;;5004240;28;20240;-76
2021/12/18 10:38:44;;;;;;;4.63;1.60;;;;;;;;;;5017225;28;20391;-73
2021/12/18 10:41:29;;;;;;;2.13;1.20;;;;;;;;;;5019953;28;20232;-74
2021/12/18 10:43:57;;;;;;;2.20;1.10;;;;;;;;;;5026280;28;20217;-75
2021/12/18 10:46:25;;;;;;;1.10;1.00;;;;;;;;;;5003194;28;20228;-73
2021/12/18 10:49:01;;;;;;;1.40;0.97;;;;;;;;;;5005966;28;20233;-74
2021/12/18 10:51:27;;;;;;;1.50;0.80;;;;;;;;;;5014965;28;20717;-74
2021/12/18 10:54:01;;;;;;;1.43;0.90;;;;;;;;;;5007744;28;20220;-74
2021/12/18 10:56:39;;;;;;;1.30;0.77;;;;;;;;;;5009503;28;20295;-75
2021/12/18 10:59:20;;;;;;;1.57;0.73;;;;;;;;;;5027412;28;20216;-75
2021/12/18 11:02:02;;;;;;;1.80;0.77;;;;;;;;;;5026635;28;20216;-75
2021/12/18 11:04:33;;;;;;;1.50;0.70;;;;;;;;;;5020207;28;20208;-75
2021/12/18 11:06:59;;;;;;;0.60;0.60;;;;;;;;;;4994253;28;20224;-73
2021/12/18 11:09:31;;;;;;;0.67;0.67;;;;;;;;;;5010036;28;20223;-74
2021/12/18 11:14:40;;;;;;;1.17;0.83;;;;;;;;;;5020113;28;20311;-74
2021/12/18 11:17:10;;;;;;;1.00;0.90;;;;;;;;;;4991152;28;20225;-74
2021/12/18 11:19:43;;;;;;;1.80;1.40;;;;;;;;;;5014560;28;20213;-74
2021/12/18 11:22:14;;;;;;;2.10;0.97;;;;;;;;;;5002544;28;20235;-74
2021/12/18 11:24:42;;;;;;;1.83;1.10;;;;;;;;;;4986566;28;20224;-73
2021/12/18 11:27:11;;;;;;;1.33;1.23;;;;;;;;;;5016868;28;20733;-73
2021/12/18 11:29:44;;;;;;;1.37;0.97;;;;;;;;;;5003385;28;20273;-74
2021/12/18 11:32:11;;;;;;;1.07;0.97;;;;;;;;;;5018417;28;20225;-73
2021/12/18 11:34:39;;;;;;;1.37;1.10;;;;;;;;;;5009811;28;20225;-74
2021/12/18 11:37:09;;;;;;;0.90;0.80;;;;;;;;;;5020176;28;20220;-74
2021/12/18 11:39:39;;;;;;;2.37;1.60;;;;;;;;;;5011750;28;20205;-74
2021/12/18 11:42:05;;;;;;;1.30;0.80;;;;;;;;;;5010433;28;20256;-74
2021/12/18 11:44:40;;;;;;;0.93;0.60;;;;;;;;;;5011778;28;20224;-74
2021/12/18 11:47:24;;;;;;;2.83;1.90;;;;;;;;;;5028708;28;20239;-74
2021/12/18 11:49:49;;;;;;;3.23;2.03;;;;;;;;;;5022639;28;20216;-74
2021/12/18 11:52:15;;;;;;;0.80;0.63;;;;;;;;;;5018201;28;20319;-74
2021/12/18 11:54:50;;;;;;;1.20;0.70;;;;;;;;;;5019768;28;20212;-74
2021/12/18 11:57:35;;;;;;;0.80;0.70;;;;;;;;;;5025534;28;20235;-74
2021/12/18 12:00:02;;;;;;;1.23;0.70;;;;;;;;;;5004675;28;20227;-73
2021/12/18 12:02:46;;;;;;;0.80;0.80;;;;;;;;;;5027192;28;20219;-74
2021/12/18 12:05:11;;;;;;;1.43;1.10;;;;;;;;;;5025969;28;20769;-75
2021/12/18 12:07:37;;;;;;;1.40;1.13;;;;;;;;;;5025388;28;20217;-74
2021/12/18 12:13:10;;;;;;;1.40;1.00;;;;;;;;;;5002458;28;20219;-74
2021/12/18 12:15:35;;;;;;;1.97;1.73;;;;;;;;;;5022394;28;20247;-75
2021/12/18 12:18:04;;;;;;;1.67;1.20;;;;;;;;;;5030137;28;20785;-74
2021/12/18 12:20:48;;;;;;;2.67;1.20;;;;;;;;;;5012231;28;20307;-75
2021/12/18 12:23:14;;;;;;;2.90;1.70;;;;;;;;;;5028264;28;20220;-74
2021/12/18 12:25:49;;;;;;;3.23;1.40;;;;;;;;;;5013548;28;20217;-74
2021/12/18 12:28:24;;;;;;;7.13;4.67;;;;;;;;;;5022406;28;20228;-75
2021/12/18 12:31:00;;;;;;;5.67;4.00;;;;;;;;;;5029481;28;20208;-75
2021/12/18 12:33:29;;;;;;;10.40;6.90;;;;;;;;;;5015281;28;20220;-75
2021/12/18 12:36:05;;;;;;;7.20;5.00;;;;;;;;;;5036471;28;20348;-74
2021/12/18 12:38:38;;;;;;;6.10;3.43;;;;;;;;;;5013227;28;20255;-74
2021/12/18 12:41:28;;;;;;;5.07;2.73;;;;;;;;;;5027246;28;20229;-74
2021/12/18 12:44:02;;;;;;;4.63;2.13;;;;;;;;;;5018383;28;20259;-74
2021/12/18 12:46:30;;;;;;;8.67;2.30;;;;;;;;;;5012364;28;20215;-75
2021/12/18 12:49:07;;;;;;;6.63;1.90;;;;;;;;;;5020263;28;20668;-75
2021/12/18 12:51:58;;;;;;;5.27;2.17;;;;;;;;;;5004438;28;20216;-75
2021/12/18 12:54:42;;;;;;;8.97;4.97;;;;;;;;;;5022576;28;20220;-75
2021/12/18 12:57:22;;;;;;;6.17;2.83;;;;;;;;;;5020323;28;20228;-75
2021/12/18 13:00:10;;;;;;;7.80;2.70;;;;;;;;;;5031161;28;20231;-77
2021/12/18 13:02:48;;;;;;;6.13;2.20;;;;;;;;;;5021991;28;20227;-73
2021/12/18 13:05:14;;;;;;;5.93;2.60;;;;;;;;;;4995430;28;20239;-74
2021/12/18 13:07:53;;;;;;;8.13;2.40;;;;;;;;;;4980349;28;20213;-74
2021/12/18 13:10:22;;;;;;;4.90;2.60;;;;;;;;;;5011994;28;20302;-74
2021/12/18 13:13:05;;;;;;;5.43;2.73;;;;;;;;;;5004721;28;20720;-75
2021/12/18 13:15:50;;;;;;;7.63;2.60;;;;;;;;;;5026367;28;20601;-75
2021/12/18 13:18:16;;;;;;;7.03;3.00;;;;;;;;;;5024427;28;20213;-74
2021/12/18 13:20:48;;;;;;;12.10;2.70;;;;;;;;;;5023922;28;20275;-74
2021/12/18 13:23:19;;;;;;;6.93;3.20;;;;;;;;;;4995763;28;20690;-74
2021/12/18 13:25:58;;;;;;;7.27;2.70;;;;;;;;;;5007194;28;20702;-75
2021/12/18 13:28:25;;;;;;;9.10;2.90;;;;;;;;;;5002053;28;20778;-75
2021/12/18 13:30:54;;;;;;;9.50;3.53;;;;;;;;;;5014102;28;20209;-75
2021/12/18 13:33:30;;;;;;;9.20;2.70;;;;;;;;;;5022940;28;20220;-75
2021/12/18 13:36:04;;;;;;;7.80;2.63;;;;;;;;;;5025729;28;20728;-75
2021/12/18 13:38:44;;;;;;;7.90;3.20;;;;;;;;;;5000973;28;20220;-74
2021/12/18 13:41:16;;;;;;;7.73;2.53;;;;;;;;;;5009642;28;20727;-75
2021/12/18 13:43:44;;;;;;;6.63;2.73;;;;;;;;;;4988876;28;20217;-75
2021/12/18 13:46:18;;;;;;;11.20;4.10;;;;;;;;;;5013210;28;20228;-75
2021/12/18 13:48:46;;;;;;;8.67;3.27;;;;;;;;;;5013395;28;20220;-75
2021/12/18 13:51:13;;;;;;;12.87;4.37;;;;;;;;;;4988919;28;20542;-75
2021/12/18 13:53:54;;;;;;;9.90;3.87;;;;;;;;;;5010808;28;20576;-76
2021/12/18 13:56:24;;;;;;;7.37;3.20;;;;;;;;;;4999603;28;20465;-74
2021/12/18 13:58:50;;;;;;;12.27;3.73;;;;;;;;;;4991477;28;20225;-73
2021/12/18 14:01:17;;;;;;;9.17;4.00;;;;;;;;;;5017696;28;20247;-74
2021/12/18 14:04:02;;;;;;;13.43;3.60;;;;;;;;;;5006952;28;20227;-74
2021/12/18 14:06:34;;;;;;;12.23;3.80;;;;;;;;;;5007064;28;20231;-74
2021/12/18 14:09:11;;;;;;;9.13;3.90;;;;;;;;;;5011860;28;20594;-74
2021/12/18 14:11:50;;;;;;;9.87;3.97;;;;;;;;;;5020246;28;20228;-75
2021/12/18 14:14:42;;;;;;;9.10;4.00;;;;;;;;;;4999696;28;20259;-75
2021/12/18 14:17:11;;;;;;;7.70;3.87;;;;;;;;;;5023630;28;20220;-74
2021/12/18 14:19:39;;;;;;;11.60;4.23;;;;;;;;;;5020139;28;20224;-74
2021/12/18 14:22:05;;;;;;;11.13;4.20;;;;;;;;;;5018673;28;20611;-74
2021/12/18 14:24:31;;;;;;;8.73;4.23;;;;;;;;;;5026395;28;20347;-74
2021/12/18 14:27:05;;;;;;;12.60;5.13;;;;;;;;;;4993792;28;20221;-73
2021/12/18 14:29:33;;;;;;;11.83;4.43;;;;;;;;;;4993811;28;20220;-73
2021/12/18 14:32:08;;;;;;;12.73;4.30;;;;;;;;;;4994148;28;20216;-73
2021/12/18 14:34:37;;;;;;;9.27;3.80;;;;;;;;;;4984164;28;20228;-73
2021/12/18 14:37:07;;;;;;;11.03;5.10;;;;;;;;;;4977467;28;20314;-74
2021/12/18 14:39:49;;;;;;;8.03;3.80;;;;;;;;;;4998934;28;20282;-74
2021/12/18 14:42:30;;;;;;;12.03;4.27;;;;;;;;;;5011824;28;20352;-73
2021/12/18 14:44:59;;;;;;;11.43;4.03;;;;;;;;;;4995450;28;20234;-74
2021/12/18 14:47:28;;;;;;;12.83;4.07;;;;;;;;;;5009688;28;20216;-74
2021/12/18 14:50:08;;;;;;;13.77;4.67;;;;;;;;;;5010135;28;20224;-74
2021/12/18 14:52:51;;;;;;;11.73;4.40;;;;;;;;;;5018849;28;20682;-74
2021/12/18 14:55:19;;;;;;;9.80;4.23;;;;;;;;;;5027056;28;20719;-74
2021/12/18 14:57:52;;;;;;;12.80;4.13;;;;;;;;;;5012211;28;20720;-74
2021/12/18 15:00:23;;;;;;;12.77;4.13;;;;;;;;;;4995423;28;20362;-74
2021/12/18 15:02:55;;;;;;;9.27;4.23;;;;;;;;;;5023850;28;20236;-75
2021/12/18 15:05:25;;;;;;;11.93;4.20;;;;;;;;;;4996109;28;20369;-74
2021/12/18 15:08:01;;;;;;;14.77;4.23;;;;;;;;;;5008975;28;20220;-75
2021/12/18 15:10:56;;;;;;;12.33;4.10;;;;;;;;;;5007645;28;20295;-75
2021/12/18 15:13:22;;;;;;;12.80;4.00;;;;;;;;;;5019332;28;20268;-75
2021/12/18 15:16:05;;;;;;;9.93;4.03;;;;;;;;;;5010002;28;20235;-75
2021/12/18 15:18:32;;;;;;;13.03;3.87;;;;;;;;;;5002609;28;20216;-74
2021/12/18 15:21:01;;;;;;;11.63;4.30;;;;;;;;;;4999443;28;20232;-75
2021/12/18 15:23:31;;;;;;;13.13;4.97;;;;;;;;;;5037867;28;20232;-72
2021/12/18 15:26:02;;;;;;;14.07;4.80;;;;;;;;;;5029489;28;20601;-73
2021/12/18 15:28:30;;;;;;;12.57;4.60;;;;;;;;;;5020716;28;20228;-74
2021/12/18 15:30:58;;;;;;;10.93;4.50;;;;;;;;;;5009034;28;20284;-74
2021/12/18 15:33:26;;;;;;;13.40;4.30;;;;;;;;;;5026781;28;20220;-74
2021/12/18 15:35:56;;;;;;;12.50;4.50;;;;;;;;;;5023864;28;20837;-75
2021/12/18 15:38:27;;;;;;;17.37;4.57;;;;;;;;;;5022505;28;20220;-76
2021/12/18 15:40:55;;;;;;;13.10;4.53;;;;;;;;;;4992694;28;20235;-74
2021/12/18 15:43:21;;;;;;;14.27;4.73;;;;;;;;;;5009367;28;20224;-76
2021/12/18 15:45:47;;;;;;;14.63;4.63;;;;;;;;;;5026135;28;20927;-74
2021/12/18 15:48:17;;;;;;;16.10;4.67;;;;;;;;;;5025665;28;20307;-74
2021/12/18 15:50:45;;;;;;;14.23;4.73;;;;;;;;;;5017781;28;20256;-75